sensor_id;sensor_type;location;lat;lon;timestamp;temperature;humidity
9564;DHT22;4820;50.870;4.702;2022-08-01T00:01:00;21.50;99.90
9564;DHT22;4820;50.870;4.702;2022-08-01T00:03:25;21.40;99.90
9564;DHT22;4820;50.870;4.702;2022-08-01T00:05:51;21.30;99.90
9564;DHT22;4820;50.870;4.702;2022-08-01T00:08:17;21.40;99.90
9564;DHT22;4820;50.870;4.702;2022-08-01T00:10:42;21.40;99.90
9564;DHT22;4820;50.870;4.702;2022-08-01T00:13:08;21.40;99.90
9564;DHT22;4820;50.870;4.702;2022-08-01T00:15:34;21.40;99.90
9564;DHT22;4820;50.870;4.702;2022-08-01T00:18:01;21.30;99.90
9564;DHT22;4820;50.870;4.702;2022-08-01T00:20:26;21.40;99.90
9564;DHT22;4820;50.870;4.702;2022-08-01T00:22:52;21.40;99.90
9564;DHT22;4820;50.870;4.702;2022-08-01T00:25:18;21.40;99.90
9564;DHT22;4820;50.870;4.702;2022-08-01T00:27:44;21.40;99.90
9564;DHT22;4820;50.870;4.702;2022-08-01T00:30:09;21.40;99.90
9564;DHT22;4820;50.870;4.702;2022-08-01T00:32:35;21.40;99.90
9564;DHT22;4820;50.870;4.702;2022-08-01T00:35:01;21.40;99.90
9564;DHT22;4820;50.870;4.702;2022-08-01T00:37:27;21.40;99.90
9564;DHT22;4820;50.870;4.702;2022-08-01T00:39:53;21.30;99.90
9564;DHT22;4820;50.870;4.702;2022-08-01T00:42:20;21.30;99.90
9564;DHT22;4820;50.870;4.702;2022-08-01T00:44:46;21.30;99.90
9564;DHT22;4820;50.870;4.702;2022-08-01T00:47:12;21.20;99.90
9564;DHT22;4820;50.870;4.702;2022-08-01T00:49:37;21.30;99.90
9564;DHT22;4820;50.870;4.702;2022-08-01T00:52:05;21.20;99.90
9564;DHT22;4820;50.870;4.702;2022-08-01T00:54:31;21.10;99.90
9564;DHT22;4820;50.870;4.702;2022-08-01T00:56:58;21.10;99.90
9564;DHT22;4820;50.870;4.702;2022-08-01T00:59:24;21.20;99.90
9564;DHT22;4820;50.870;4.702;2022-08-01T01:01:50;21.20;99.90
9564;DHT22;4820;50.870;4.702;2022-08-01T01:04:16;21.10;99.90
9564;DHT22;4820;50.870;4.702;2022-08-01T01:07:18;21.20;99.90
9564;DHT22;4820;50.870;4.702;2022-08-01T01:10:15;21.10;99.90
9564;DHT22;4820;50.870;4.702;2022-08-01T01:17:58;21.20;99.90
9564;DHT22;4820;50.870;4.702;2022-08-01T01:20:41;21.10;99.90
9564;DHT22;4820;50.870;4.702;2022-08-01T01:30:35;21.00;99.90
9564;DHT22;4820;50.870;4.702;2022-08-01T01:33:06;21.00;99.90
9564;DHT22;4820;50.870;4.702;2022-08-01T01:35:38;21.00;99.90
9564;DHT22;4820;50.870;4.702;2022-08-01T01:38:20;21.00;99.90
9564;DHT22;4820;50.870;4.702;2022-08-01T01:40:48;21.00;99.90
9564;DHT22;4820;50.870;4.702;2022-08-01T01:43:15;21.00;99.90
9564;DHT22;4820;50.870;4.702;2022-08-01T01:45:44;21.10;99.90
9564;DHT22;4820;50.870;4.702;2022-08-01T01:48:14;21.00;99.90
9564;DHT22;4820;50.870;4.702;2022-08-01T01:50:42;21.10;99.90
9564;DHT22;4820;50.870;4.702;2022-08-01T01:53:08;21.10;99.90
9564;DHT22;4820;50.870;4.702;2022-08-01T01:55:37;21.10;99.90
9564;DHT22;4820;50.870;4.702;2022-08-01T01:58:05;21.20;99.90
9564;DHT22;4820;50.870;4.702;2022-08-01T02:00:32;21.20;99.90
9564;DHT22;4820;50.870;4.702;2022-08-01T02:02:59;21.20;99.90
9564;DHT22;4820;50.870;4.702;2022-08-01T02:05:26;21.10;99.90
9564;DHT22;4820;50.870;4.702;2022-08-01T02:07:54;21.20;99.90
9564;DHT22;4820;50.870;4.702;2022-08-01T02:10:21;21.20;99.90
9564;DHT22;4820;50.870;4.702;2022-08-01T02:12:49;21.10;99.90
9564;DHT22;4820;50.870;4.702;2022-08-01T02:15:16;21.10;99.90
9564;DHT22;4820;50.870;4.702;2022-08-01T02:17:45;21.10;99.90
9564;DHT22;4820;50.870;4.702;2022-08-01T02:20:13;21.10;99.90
9564;DHT22;4820;50.870;4.702;2022-08-01T02:22:52;21.00;99.90
9564;DHT22;4820;50.870;4.702;2022-08-01T02:25:53;21.00;99.90
9564;DHT22;4820;50.870;4.702;2022-08-01T02:28:25;21.10;99.90
9564;DHT22;4820;50.870;4.702;2022-08-01T02:30:59;21.00;99.90
9564;DHT22;4820;50.870;4.702;2022-08-01T02:33:33;21.00;99.90
9564;DHT22;4820;50.870;4.702;2022-08-01T02:36:01;21.10;99.90
9564;DHT22;4820;50.870;4.702;2022-08-01T02:38:29;21.00;99.90
9564;DHT22;4820;50.870;4.702;2022-08-01T02:41:00;21.00;99.90
9564;DHT22;4820;50.870;4.702;2022-08-01T02:43:30;21.00;99.90
9564;DHT22;4820;50.870;4.702;2022-08-01T02:46:00;21.00;99.90
9564;DHT22;4820;50.870;4.702;2022-08-01T02:48:27;21.00;99.90
9564;DHT22;4820;50.870;4.702;2022-08-01T02:50:58;21.10;99.90
9564;DHT22;4820;50.870;4.702;2022-08-01T02:53:27;21.00;99.90
9564;DHT22;4820;50.870;4.702;2022-08-01T02:55:57;21.00;99.90
9564;DHT22;4820;50.870;4.702;2022-08-01T02:58:24;21.00;99.90
9564;DHT22;4820;50.870;4.702;2022-08-01T03:00:51;21.10;99.90
9564;DHT22;4820;50.870;4.702;2022-08-01T03:03:18;21.00;99.90
9564;DHT22;4820;50.870;4.702;2022-08-01T03:05:45;21.10;99.90
9564;DHT22;4820;50.870;4.702;2022-08-01T03:08:12;21.00;99.90
9564;DHT22;4820;50.870;4.702;2022-08-01T03:10:41;21.00;99.90
9564;DHT22;4820;50.870;4.702;2022-08-01T03:13:09;21.00;99.90
9564;DHT22;4820;50.870;4.702;2022-08-01T03:15:39;21.00;99.90
9564;DHT22;4820;50.870;4.702;2022-08-01T03:18:07;21.00;99.90
9564;DHT22;4820;50.870;4.702;2022-08-01T03:20:34;20.90;99.90
9564;DHT22;4820;50.870;4.702;2022-08-01T03:23:04;20.90;99.90
9564;DHT22;4820;50.870;4.702;2022-08-01T03:25:31;20.90;99.90
9564;DHT22;4820;50.870;4.702;2022-08-01T03:28:01;20.90;99.90
9564;DHT22;4820;50.870;4.702;2022-08-01T03:30:27;20.90;99.90
9564;DHT22;4820;50.870;4.702;2022-08-01T03:32:53;20.90;99.90
9564;DHT22;4820;50.870;4.702;2022-08-01T03:35:21;20.90;99.90
9564;DHT22;4820;50.870;4.702;2022-08-01T03:37:50;20.90;99.90
9564;DHT22;4820;50.870;4.702;2022-08-01T03:40:22;20.90;99.90
9564;DHT22;4820;50.870;4.702;2022-08-01T03:42:52;20.90;99.90
9564;DHT22;4820;50.870;4.702;2022-08-01T03:45:22;20.90;99.90
9564;DHT22;4820;50.870;4.702;2022-08-01T03:47:51;20.80;99.90
9564;DHT22;4820;50.870;4.702;2022-08-01T03:50:20;20.80;99.90
9564;DHT22;4820;50.870;4.702;2022-08-01T03:52:49;20.70;99.90
9564;DHT22;4820;50.870;4.702;2022-08-01T03:55:15;20.70;99.90
9564;DHT22;4820;50.870;4.702;2022-08-01T03:57:42;20.70;99.90
9564;DHT22;4820;50.870;4.702;2022-08-01T04:00:09;20.70;99.90
9564;DHT22;4820;50.870;4.702;2022-08-01T04:02:36;20.60;99.90
9564;DHT22;4820;50.870;4.702;2022-08-01T04:05:02;20.50;99.90
9564;DHT22;4820;50.870;4.702;2022-08-01T04:07:31;20.40;99.90
9564;DHT22;4820;50.870;4.702;2022-08-01T04:09:57;20.40;99.90
9564;DHT22;4820;50.870;4.702;2022-08-01T04:12:24;20.30;99.90
9564;DHT22;4820;50.870;4.702;2022-08-01T04:14:49;20.30;99.90
9564;DHT22;4820;50.870;4.702;2022-08-01T04:17:16;20.20;99.90
9564;DHT22;4820;50.870;4.702;2022-08-01T04:19:43;20.20;99.90
9564;DHT22;4820;50.870;4.702;2022-08-01T04:22:11;20.20;99.90
9564;DHT22;4820;50.870;4.702;2022-08-01T04:24:39;20.20;99.90
9564;DHT22;4820;50.870;4.702;2022-08-01T04:27:11;20.10;99.90
9564;DHT22;4820;50.870;4.702;2022-08-01T04:29:39;20.10;99.90
9564;DHT22;4820;50.870;4.702;2022-08-01T04:32:09;20.10;99.90
9564;DHT22;4820;50.870;4.702;2022-08-01T04:34:38;20.10;99.90
9564;DHT22;4820;50.870;4.702;2022-08-01T04:37:08;20.10;99.90
9564;DHT22;4820;50.870;4.702;2022-08-01T04:39:37;20.10;99.90
9564;DHT22;4820;50.870;4.702;2022-08-01T04:42:05;20.10;99.90
9564;DHT22;4820;50.870;4.702;2022-08-01T04:44:32;20.10;99.90
9564;DHT22;4820;50.870;4.702;2022-08-01T04:47:02;20.10;99.90
9564;DHT22;4820;50.870;4.702;2022-08-01T04:49:34;20.00;99.90
9564;DHT22;4820;50.870;4.702;2022-08-01T04:52:00;20.00;99.90
9564;DHT22;4820;50.870;4.702;2022-08-01T04:54:34;20.00;99.90
9564;DHT22;4820;50.870;4.702;2022-08-01T04:57:04;20.00;99.90
9564;DHT22;4820;50.870;4.702;2022-08-01T04:59:32;20.00;99.90
9564;DHT22;4820;50.870;4.702;2022-08-01T05:04:33;20.10;99.90
9564;DHT22;4820;50.870;4.702;2022-08-01T05:06:59;20.10;99.90
9564;DHT22;4820;50.870;4.702;2022-08-01T05:09:25;20.10;99.90
9564;DHT22;4820;50.870;4.702;2022-08-01T05:11:51;20.10;99.90
9564;DHT22;4820;50.870;4.702;2022-08-01T05:14:17;20.10;99.90
9564;DHT22;4820;50.870;4.702;2022-08-01T05:16:44;20.20;99.90
9564;DHT22;4820;50.870;4.702;2022-08-01T05:19:09;20.20;99.90
9564;DHT22;4820;50.870;4.702;2022-08-01T05:21:35;20.20;99.90
9564;DHT22;4820;50.870;4.702;2022-08-01T05:24:01;20.30;99.90
9564;DHT22;4820;50.870;4.702;2022-08-01T05:26:27;20.20;99.90
9564;DHT22;4820;50.870;4.702;2022-08-01T05:28:53;20.30;99.90
9564;DHT22;4820;50.870;4.702;2022-08-01T05:31:19;20.40;99.90
9564;DHT22;4820;50.870;4.702;2022-08-01T05:33:44;20.50;99.90
9564;DHT22;4820;50.870;4.702;2022-08-01T05:36:10;20.50;99.90
9564;DHT22;4820;50.870;4.702;2022-08-01T05:38:36;20.60;99.90
9564;DHT22;4820;50.870;4.702;2022-08-01T05:41:01;20.60;99.90
9564;DHT22;4820;50.870;4.702;2022-08-01T05:43:27;20.60;99.90
9564;DHT22;4820;50.870;4.702;2022-08-01T05:45:53;20.60;99.90
9564;DHT22;4820;50.870;4.702;2022-08-01T05:48:18;20.70;99.90
9564;DHT22;4820;50.870;4.702;2022-08-01T05:50:44;20.80;99.90
9564;DHT22;4820;50.870;4.702;2022-08-01T05:53:10;20.80;99.90
9564;DHT22;4820;50.870;4.702;2022-08-01T05:55:35;20.90;99.90
9564;DHT22;4820;50.870;4.702;2022-08-01T05:58:02;20.90;99.90
9564;DHT22;4820;50.870;4.702;2022-08-01T06:00:28;20.90;99.90
9564;DHT22;4820;50.870;4.702;2022-08-01T06:02:53;20.80;99.90
9564;DHT22;4820;50.870;4.702;2022-08-01T06:05:19;20.80;99.90
9564;DHT22;4820;50.870;4.702;2022-08-01T06:07:45;20.90;99.90
9564;DHT22;4820;50.870;4.702;2022-08-01T06:10:10;20.90;99.90
9564;DHT22;4820;50.870;4.702;2022-08-01T06:12:36;20.90;99.90
9564;DHT22;4820;50.870;4.702;2022-08-01T06:15:06;20.80;99.90
9564;DHT22;4820;50.870;4.702;2022-08-01T06:17:33;20.90;99.90
9564;DHT22;4820;50.870;4.702;2022-08-01T06:19:59;20.90;99.90
9564;DHT22;4820;50.870;4.702;2022-08-01T06:22:25;21.00;99.90
9564;DHT22;4820;50.870;4.702;2022-08-01T06:24:51;21.20;99.90
9564;DHT22;4820;50.870;4.702;2022-08-01T06:27:17;21.20;99.90
9564;DHT22;4820;50.870;4.702;2022-08-01T06:29:44;21.40;99.90
9564;DHT22;4820;50.870;4.702;2022-08-01T06:32:10;21.40;99.90
9564;DHT22;4820;50.870;4.702;2022-08-01T06:34:36;21.40;99.90
9564;DHT22;4820;50.870;4.702;2022-08-01T06:37:02;21.50;99.90
9564;DHT22;4820;50.870;4.702;2022-08-01T06:39:28;21.50;99.90
9564;DHT22;4820;50.870;4.702;2022-08-01T06:41:54;21.60;99.90
9564;DHT22;4820;50.870;4.702;2022-08-01T06:44:20;21.70;99.90
9564;DHT22;4820;50.870;4.702;2022-08-01T06:46:46;21.80;99.90
9564;DHT22;4820;50.870;4.702;2022-08-01T06:49:11;22.00;99.90
9564;DHT22;4820;50.870;4.702;2022-08-01T06:51:37;22.00;99.90
9564;DHT22;4820;50.870;4.702;2022-08-01T06:54:03;22.00;99.90
9564;DHT22;4820;50.870;4.702;2022-08-01T06:56:30;22.10;99.90
9564;DHT22;4820;50.870;4.702;2022-08-01T06:58:56;22.20;99.90
9564;DHT22;4820;50.870;4.702;2022-08-01T07:01:27;22.20;99.90
9564;DHT22;4820;50.870;4.702;2022-08-01T07:03:53;22.20;99.90
9564;DHT22;4820;50.870;4.702;2022-08-01T07:06:22;22.20;99.90
9564;DHT22;4820;50.870;4.702;2022-08-01T07:08:48;22.20;99.90
9564;DHT22;4820;50.870;4.702;2022-08-01T07:11:14;22.10;99.90
9564;DHT22;4820;50.870;4.702;2022-08-01T07:13:42;22.00;99.90
9564;DHT22;4820;50.870;4.702;2022-08-01T07:16:07;22.00;99.90
9564;DHT22;4820;50.870;4.702;2022-08-01T07:18:33;21.90;99.90
9564;DHT22;4820;50.870;4.702;2022-08-01T07:20:59;21.80;99.90
9564;DHT22;4820;50.870;4.702;2022-08-01T07:23:26;21.80;99.90
9564;DHT22;4820;50.870;4.702;2022-08-01T07:25:52;21.90;99.90
9564;DHT22;4820;50.870;4.702;2022-08-01T07:28:18;22.10;99.90
9564;DHT22;4820;50.870;4.702;2022-08-01T07:30:44;22.20;99.90
9564;DHT22;4820;50.870;4.702;2022-08-01T07:33:10;22.20;99.90
9564;DHT22;4820;50.870;4.702;2022-08-01T07:35:36;22.20;99.90
9564;DHT22;4820;50.870;4.702;2022-08-01T07:38:05;22.20;99.90
9564;DHT22;4820;50.870;4.702;2022-08-01T07:40:30;22.20;99.90
9564;DHT22;4820;50.870;4.702;2022-08-01T07:42:56;22.30;99.90
9564;DHT22;4820;50.870;4.702;2022-08-01T07:45:22;22.30;99.90
9564;DHT22;4820;50.870;4.702;2022-08-01T07:47:48;22.30;99.90
9564;DHT22;4820;50.870;4.702;2022-08-01T07:50:15;22.30;99.90
9564;DHT22;4820;50.870;4.702;2022-08-01T07:52:42;22.40;99.90
9564;DHT22;4820;50.870;4.702;2022-08-01T07:55:09;22.40;99.90
9564;DHT22;4820;50.870;4.702;2022-08-01T07:57:35;22.40;99.90
9564;DHT22;4820;50.870;4.702;2022-08-01T08:00:02;22.50;99.90
9564;DHT22;4820;50.870;4.702;2022-08-01T08:02:28;22.50;99.90
9564;DHT22;4820;50.870;4.702;2022-08-01T08:04:54;22.50;99.90
9564;DHT22;4820;50.870;4.702;2022-08-01T08:07:20;22.60;99.90
9564;DHT22;4820;50.870;4.702;2022-08-01T08:09:46;22.60;99.90
9564;DHT22;4820;50.870;4.702;2022-08-01T08:12:11;22.60;99.90
9564;DHT22;4820;50.870;4.702;2022-08-01T08:14:37;22.60;99.90
9564;DHT22;4820;50.870;4.702;2022-08-01T08:17:05;22.70;99.90
9564;DHT22;4820;50.870;4.702;2022-08-01T08:19:31;22.70;99.90
9564;DHT22;4820;50.870;4.702;2022-08-01T08:21:59;22.70;99.90
9564;DHT22;4820;50.870;4.702;2022-08-01T08:24:26;22.80;99.90
9564;DHT22;4820;50.870;4.702;2022-08-01T08:27:02;22.80;99.90
9564;DHT22;4820;50.870;4.702;2022-08-01T08:29:30;22.80;99.90
9564;DHT22;4820;50.870;4.702;2022-08-01T08:32:00;22.90;99.90
9564;DHT22;4820;50.870;4.702;2022-08-01T08:34:27;23.10;99.90
9564;DHT22;4820;50.870;4.702;2022-08-01T08:36:57;23.30;99.90
9564;DHT22;4820;50.870;4.702;2022-08-01T08:39:23;23.40;99.90
9564;DHT22;4820;50.870;4.702;2022-08-01T08:41:49;23.50;99.90
9564;DHT22;4820;50.870;4.702;2022-08-01T08:44:16;23.60;99.90
9564;DHT22;4820;50.870;4.702;2022-08-01T08:46:44;23.70;99.90
9564;DHT22;4820;50.870;4.702;2022-08-01T08:49:13;23.90;99.90
9564;DHT22;4820;50.870;4.702;2022-08-01T08:51:43;24.10;99.90
9564;DHT22;4820;50.870;4.702;2022-08-01T08:54:11;24.10;99.90
9564;DHT22;4820;50.870;4.702;2022-08-01T08:56:38;24.10;99.90
9564;DHT22;4820;50.870;4.702;2022-08-01T08:59:04;24.30;99.90
9564;DHT22;4820;50.870;4.702;2022-08-01T09:01:32;24.30;99.90
9564;DHT22;4820;50.870;4.702;2022-08-01T09:03:59;24.30;99.90
9564;DHT22;4820;50.870;4.702;2022-08-01T09:06:24;24.40;99.90
9564;DHT22;4820;50.870;4.702;2022-08-01T09:08:53;24.50;99.90
9564;DHT22;4820;50.870;4.702;2022-08-01T09:11:19;24.50;99.90
9564;DHT22;4820;50.870;4.702;2022-08-01T09:14:18;24.50;99.90
9564;DHT22;4820;50.870;4.702;2022-08-01T09:17:09;24.50;99.90
9564;DHT22;4820;50.870;4.702;2022-08-01T09:19:49;24.50;99.90
9564;DHT22;4820;50.870;4.702;2022-08-01T09:22:22;24.60;99.90
9564;DHT22;4820;50.870;4.702;2022-08-01T09:25:07;24.70;99.90
9564;DHT22;4820;50.870;4.702;2022-08-01T09:27:35;24.80;99.90
9564;DHT22;4820;50.870;4.702;2022-08-01T09:30:21;24.90;99.90
9564;DHT22;4820;50.870;4.702;2022-08-01T09:32:59;24.90;99.90
9564;DHT22;4820;50.870;4.702;2022-08-01T09:35:35;24.90;99.90
9564;DHT22;4820;50.870;4.702;2022-08-01T09:40:50;25.00;99.90
9564;DHT22;4820;50.870;4.702;2022-08-01T09:43:17;24.90;99.90
9564;DHT22;4820;50.870;4.702;2022-08-01T09:45:43;24.90;99.90
9564;DHT22;4820;50.870;4.702;2022-08-01T09:48:09;25.00;99.90
9564;DHT22;4820;50.870;4.702;2022-08-01T09:50:46;24.90;99.90
9564;DHT22;4820;50.870;4.702;2022-08-01T09:53:13;24.80;99.90
9564;DHT22;4820;50.870;4.702;2022-08-01T09:55:40;24.80;99.90
9564;DHT22;4820;50.870;4.702;2022-08-01T09:58:06;24.80;99.90
9564;DHT22;4820;50.870;4.702;2022-08-01T10:00:33;24.60;99.90
9564;DHT22;4820;50.870;4.702;2022-08-01T10:03:00;24.60;99.90
9564;DHT22;4820;50.870;4.702;2022-08-01T10:05:43;24.40;99.90
9564;DHT22;4820;50.870;4.702;2022-08-01T10:08:08;24.50;99.90
9564;DHT22;4820;50.870;4.702;2022-08-01T10:10:36;24.50;99.90
9564;DHT22;4820;50.870;4.702;2022-08-01T10:13:02;24.50;99.90
9564;DHT22;4820;50.870;4.702;2022-08-01T10:15:29;24.60;99.90
9564;DHT22;4820;50.870;4.702;2022-08-01T10:17:58;24.60;99.90
9564;DHT22;4820;50.870;4.702;2022-08-01T10:20:29;24.70;99.90
9564;DHT22;4820;50.870;4.702;2022-08-01T10:22:59;24.80;99.90
9564;DHT22;4820;50.870;4.702;2022-08-01T10:25:28;25.00;99.90
9564;DHT22;4820;50.870;4.702;2022-08-01T10:27:55;25.40;99.90
9564;DHT22;4820;50.870;4.702;2022-08-01T10:30:22;25.50;99.90
9564;DHT22;4820;50.870;4.702;2022-08-01T10:32:49;25.50;99.90
9564;DHT22;4820;50.870;4.702;2022-08-01T10:35:16;25.60;99.90
9564;DHT22;4820;50.870;4.702;2022-08-01T10:37:47;25.70;99.90
9564;DHT22;4820;50.870;4.702;2022-08-01T10:40:16;25.50;99.90
9564;DHT22;4820;50.870;4.702;2022-08-01T10:42:43;25.50;99.90
9564;DHT22;4820;50.870;4.702;2022-08-01T10:45:13;25.50;99.90
9564;DHT22;4820;50.870;4.702;2022-08-01T10:47:53;25.30;99.90
9564;DHT22;4820;50.870;4.702;2022-08-01T10:50:42;25.40;99.90
9564;DHT22;4820;50.870;4.702;2022-08-01T10:53:18;25.50;99.90
9564;DHT22;4820;50.870;4.702;2022-08-01T10:55:51;25.60;99.90
9564;DHT22;4820;50.870;4.702;2022-08-01T10:58:35;25.60;99.90
9564;DHT22;4820;50.870;4.702;2022-08-01T11:01:23;25.80;99.90
9564;DHT22;4820;50.870;4.702;2022-08-01T11:04:06;25.80;99.90
9564;DHT22;4820;50.870;4.702;2022-08-01T11:09:29;26.00;99.90
9564;DHT22;4820;50.870;4.702;2022-08-01T11:12:12;26.20;99.90
9564;DHT22;4820;50.870;4.702;2022-08-01T11:20:14;26.50;98.90
9564;DHT22;4820;50.870;4.702;2022-08-01T11:25:25;26.30;98.80
9564;DHT22;4820;50.870;4.702;2022-08-01T11:38:40;26.30;97.40
9564;DHT22;4820;50.870;4.702;2022-08-01T11:44:00;26.50;97.50
9564;DHT22;4820;50.870;4.702;2022-08-01T11:52:19;27.00;96.00
9564;DHT22;4820;50.870;4.702;2022-08-01T11:54:58;27.20;95.20
9564;DHT22;4820;50.870;4.702;2022-08-01T11:57:31;27.20;95.10
9564;DHT22;4820;50.870;4.702;2022-08-01T12:00:04;27.30;94.80
9564;DHT22;4820;50.870;4.702;2022-08-01T12:02:34;27.40;95.00
9564;DHT22;4820;50.870;4.702;2022-08-01T12:07:28;27.10;95.40
9564;DHT22;4820;50.870;4.702;2022-08-01T12:12:32;27.10;95.90
9564;DHT22;4820;50.870;4.702;2022-08-01T12:15:01;27.20;95.50
9564;DHT22;4820;50.870;4.702;2022-08-01T12:17:40;27.30;95.50
9564;DHT22;4820;50.870;4.702;2022-08-01T12:20:09;27.50;95.20
9564;DHT22;4820;50.870;4.702;2022-08-01T12:22:35;27.60;95.00
9564;DHT22;4820;50.870;4.702;2022-08-01T12:25:13;27.60;95.00
9564;DHT22;4820;50.870;4.702;2022-08-01T12:27:42;27.70;95.00
9564;DHT22;4820;50.870;4.702;2022-08-01T12:30:12;27.80;94.20
9564;DHT22;4820;50.870;4.702;2022-08-01T12:32:40;27.60;93.20
9564;DHT22;4820;50.870;4.702;2022-08-01T12:35:16;27.40;93.20
9564;DHT22;4820;50.870;4.702;2022-08-01T12:37:46;27.00;94.20
9564;DHT22;4820;50.870;4.702;2022-08-01T12:40:21;26.90;94.30
9564;DHT22;4820;50.870;4.702;2022-08-01T12:42:50;26.90;94.20
9564;DHT22;4820;50.870;4.702;2022-08-01T12:45:21;27.00;94.00
9564;DHT22;4820;50.870;4.702;2022-08-01T12:47:51;27.20;93.70
9564;DHT22;4820;50.870;4.702;2022-08-01T12:50:20;27.50;93.00
9564;DHT22;4820;50.870;4.702;2022-08-01T12:52:49;27.60;92.80
9564;DHT22;4820;50.870;4.702;2022-08-01T12:55:20;27.80;92.50
9564;DHT22;4820;50.870;4.702;2022-08-01T12:57:48;27.80;92.40
9564;DHT22;4820;50.870;4.702;2022-08-01T13:00:21;27.90;92.20
9564;DHT22;4820;50.870;4.702;2022-08-01T13:02:48;27.80;92.40
9564;DHT22;4820;50.870;4.702;2022-08-01T13:05:15;27.90;92.10
9564;DHT22;4820;50.870;4.702;2022-08-01T13:07:44;27.90;92.30
9564;DHT22;4820;50.870;4.702;2022-08-01T13:10:11;28.10;91.70
9564;DHT22;4820;50.870;4.702;2022-08-01T13:12:40;28.20;91.50
9564;DHT22;4820;50.870;4.702;2022-08-01T13:15:22;28.20;91.00
9564;DHT22;4820;50.870;4.702;2022-08-01T13:17:51;28.30;91.30
9564;DHT22;4820;50.870;4.702;2022-08-01T13:20:29;28.30;91.30
9564;DHT22;4820;50.870;4.702;2022-08-01T13:22:55;28.30;91.40
9564;DHT22;4820;50.870;4.702;2022-08-01T13:25:48;28.10;91.40
9564;DHT22;4820;50.870;4.702;2022-08-01T13:28:17;27.90;91.00
9564;DHT22;4820;50.870;4.702;2022-08-01T13:31:09;27.80;91.00
9564;DHT22;4820;50.870;4.702;2022-08-01T13:33:48;27.70;90.70
9564;DHT22;4820;50.870;4.702;2022-08-01T13:36:14;27.60;90.20
9564;DHT22;4820;50.870;4.702;2022-08-01T13:38:41;27.50;89.80
9564;DHT22;4820;50.870;4.702;2022-08-01T13:41:26;27.30;90.10
9564;DHT22;4820;50.870;4.702;2022-08-01T13:43:53;27.10;90.00
9564;DHT22;4820;50.870;4.702;2022-08-01T13:46:20;27.10;88.60
9564;DHT22;4820;50.870;4.702;2022-08-01T13:48:46;27.10;87.90
9564;DHT22;4820;50.870;4.702;2022-08-01T13:51:11;27.00;88.50
9564;DHT22;4820;50.870;4.702;2022-08-01T13:53:38;27.10;88.30
9564;DHT22;4820;50.870;4.702;2022-08-01T13:56:04;27.10;88.80
9564;DHT22;4820;50.870;4.702;2022-08-01T13:58:30;27.20;89.30
9564;DHT22;4820;50.870;4.702;2022-08-01T14:00:56;27.10;89.20
9564;DHT22;4820;50.870;4.702;2022-08-01T14:03:22;27.00;90.00
9564;DHT22;4820;50.870;4.702;2022-08-01T14:05:48;27.00;90.00
9564;DHT22;4820;50.870;4.702;2022-08-01T14:08:14;27.10;90.00
9564;DHT22;4820;50.870;4.702;2022-08-01T14:10:40;27.10;89.70
9564;DHT22;4820;50.870;4.702;2022-08-01T14:13:06;27.20;89.00
9564;DHT22;4820;50.870;4.702;2022-08-01T14:15:32;27.10;88.50
9564;DHT22;4820;50.870;4.702;2022-08-01T14:17:58;27.10;88.00
9564;DHT22;4820;50.870;4.702;2022-08-01T14:20:26;26.90;87.10
9564;DHT22;4820;50.870;4.702;2022-08-01T14:22:51;26.80;87.90
9564;DHT22;4820;50.870;4.702;2022-08-01T14:25:17;26.80;86.40
9564;DHT22;4820;50.870;4.702;2022-08-01T14:27:44;26.80;85.80
9564;DHT22;4820;50.870;4.702;2022-08-01T14:30:11;26.90;85.70
9564;DHT22;4820;50.870;4.702;2022-08-01T14:32:37;26.90;84.10
9564;DHT22;4820;50.870;4.702;2022-08-01T14:35:05;26.90;83.30
9564;DHT22;4820;50.870;4.702;2022-08-01T14:37:31;26.90;83.50
9564;DHT22;4820;50.870;4.702;2022-08-01T14:39:58;26.90;83.70
9564;DHT22;4820;50.870;4.702;2022-08-01T14:42:24;26.80;84.50
9564;DHT22;4820;50.870;4.702;2022-08-01T14:44:50;26.80;85.00
9564;DHT22;4820;50.870;4.702;2022-08-01T14:47:16;26.80;85.40
9564;DHT22;4820;50.870;4.702;2022-08-01T14:49:43;26.80;85.50
9564;DHT22;4820;50.870;4.702;2022-08-01T14:52:08;26.90;85.80
9564;DHT22;4820;50.870;4.702;2022-08-01T14:54:34;27.00;85.40
9564;DHT22;4820;50.870;4.702;2022-08-01T14:57:00;27.10;84.80
9564;DHT22;4820;50.870;4.702;2022-08-01T14:59:25;27.10;84.50
9564;DHT22;4820;50.870;4.702;2022-08-01T15:01:51;27.20;84.00
9564;DHT22;4820;50.870;4.702;2022-08-01T15:04:17;27.20;84.30
9564;DHT22;4820;50.870;4.702;2022-08-01T15:06:43;27.20;84.10
9564;DHT22;4820;50.870;4.702;2022-08-01T15:09:09;27.20;84.40
9564;DHT22;4820;50.870;4.702;2022-08-01T15:11:36;27.20;84.60
9564;DHT22;4820;50.870;4.702;2022-08-01T15:14:02;27.20;84.40
9564;DHT22;4820;50.870;4.702;2022-08-01T15:16:46;27.30;84.40
9564;DHT22;4820;50.870;4.702;2022-08-01T15:19:13;27.20;83.80
9564;DHT22;4820;50.870;4.702;2022-08-01T15:21:39;27.20;83.50
9564;DHT22;4820;50.870;4.702;2022-08-01T15:24:05;27.10;83.60
9564;DHT22;4820;50.870;4.702;2022-08-01T15:26:32;27.10;84.20
9564;DHT22;4820;50.870;4.702;2022-08-01T15:29:02;27.10;84.30
9564;DHT22;4820;50.870;4.702;2022-08-01T15:31:28;27.10;83.70
9564;DHT22;4820;50.870;4.702;2022-08-01T15:33:54;27.10;83.70
9564;DHT22;4820;50.870;4.702;2022-08-01T15:36:20;27.10;83.40
9564;DHT22;4820;50.870;4.702;2022-08-01T15:38:48;27.10;83.60
9564;DHT22;4820;50.870;4.702;2022-08-01T15:41:14;27.10;83.10
9564;DHT22;4820;50.870;4.702;2022-08-01T15:43:40;27.10;82.90
9564;DHT22;4820;50.870;4.702;2022-08-01T15:46:06;27.20;83.30
9564;DHT22;4820;50.870;4.702;2022-08-01T15:48:31;27.20;82.80
9564;DHT22;4820;50.870;4.702;2022-08-01T15:50:57;27.10;83.30
9564;DHT22;4820;50.870;4.702;2022-08-01T15:53:23;26.90;83.90
9564;DHT22;4820;50.870;4.702;2022-08-01T15:55:49;26.90;83.90
9564;DHT22;4820;50.870;4.702;2022-08-01T15:58:15;26.90;83.20
9564;DHT22;4820;50.870;4.702;2022-08-01T16:00:41;26.90;83.70
9564;DHT22;4820;50.870;4.702;2022-08-01T16:03:07;26.90;82.80
9564;DHT22;4820;50.870;4.702;2022-08-01T16:05:34;27.00;82.80
9564;DHT22;4820;50.870;4.702;2022-08-01T16:08:01;27.10;83.20
9564;DHT22;4820;50.870;4.702;2022-08-01T16:10:28;27.30;82.30
9564;DHT22;4820;50.870;4.702;2022-08-01T16:12:54;27.40;81.60
9564;DHT22;4820;50.870;4.702;2022-08-01T16:15:20;27.60;81.10
9564;DHT22;4820;50.870;4.702;2022-08-01T16:17:47;27.80;80.80
9564;DHT22;4820;50.870;4.702;2022-08-01T16:20:13;28.00;80.40
9564;DHT22;4820;50.870;4.702;2022-08-01T16:22:39;28.10;79.70
9564;DHT22;4820;50.870;4.702;2022-08-01T16:25:05;28.20;79.00
9564;DHT22;4820;50.870;4.702;2022-08-01T16:27:31;28.20;79.40
9564;DHT22;4820;50.870;4.702;2022-08-01T16:29:57;28.20;79.00
9564;DHT22;4820;50.870;4.702;2022-08-01T16:32:23;28.10;79.10
9564;DHT22;4820;50.870;4.702;2022-08-01T16:34:48;28.10;78.50
9564;DHT22;4820;50.870;4.702;2022-08-01T16:37:14;28.00;78.70
9564;DHT22;4820;50.870;4.702;2022-08-01T16:39:40;28.00;78.50
9564;DHT22;4820;50.870;4.702;2022-08-01T16:42:06;28.00;78.80
9564;DHT22;4820;50.870;4.702;2022-08-01T16:44:32;28.00;78.70
9564;DHT22;4820;50.870;4.702;2022-08-01T16:46:57;28.10;78.50
9564;DHT22;4820;50.870;4.702;2022-08-01T16:49:26;28.20;78.40
9564;DHT22;4820;50.870;4.702;2022-08-01T16:51:52;28.30;78.30
9564;DHT22;4820;50.870;4.702;2022-08-01T16:54:18;28.50;77.80
9564;DHT22;4820;50.870;4.702;2022-08-01T16:56:45;28.60;77.20
9564;DHT22;4820;50.870;4.702;2022-08-01T16:59:11;28.80;76.60
9564;DHT22;4820;50.870;4.702;2022-08-01T17:01:37;28.90;76.00
9564;DHT22;4820;50.870;4.702;2022-08-01T17:04:03;29.00;75.00